Terminal Aerodrome Forecast
Issued by NWS

Home | Current Version | Previous Version | Text Only | Print | Product List | Glossary On
Versions: 1 2 3 4 5 6 7 8 9 10 11 12 13
000
FTUS45 KGJT 191129
TAFRIL
TAF
KRIL 191129Z 1912/2012 14003KT P6SM SCT100
     FM191600 00000KT P6SM VCSH OVC080
     FM192100 26006KT P6SM -SHRA BKN040
     FM200000 29008KT 2SM BR VCSH OVC035
     FM200400 28009KT 2SM -SHRASN BR OVC015
     FM200600 27005KT 4SM BR BKN035=

USA.gov is the U.S. government's official web portal to all federal, state and local government web resources and services.